sensor_id;sensor_type;location;lat;lon;timestamp;P1;durP1;ratioP1;P2;durP2;ratioP2
37483;SDS011;23337;52.212;9.926;2023-02-01T00:01:35;12.77;;;2.77;;
37483;SDS011;23337;52.212;9.926;2023-02-01T00:04:01;21.40;;;3.43;;
37483;SDS011;23337;52.212;9.926;2023-02-01T00:06:28;18.73;;;3.10;;
37483;SDS011;23337;52.212;9.926;2023-02-01T00:08:54;11.80;;;3.30;;
37483;SDS011;23337;52.212;9.926;2023-02-01T00:11:20;17.40;;;3.37;;
37483;SDS011;23337;52.212;9.926;2023-02-01T00:13:46;13.73;;;3.33;;
37483;SDS011;23337;52.212;9.926;2023-02-01T00:16:14;14.90;;;3.20;;
37483;SDS011;23337;52.212;9.926;2023-02-01T00:18:46;15.47;;;2.80;;
37483;SDS011;23337;52.212;9.926;2023-02-01T00:21:13;12.67;;;3.57;;
37483;SDS011;23337;52.212;9.926;2023-02-01T00:23:39;12.70;;;3.03;;
37483;SDS011;23337;52.212;9.926;2023-02-01T00:26:06;16.17;;;3.43;;
37483;SDS011;23337;52.212;9.926;2023-02-01T00:28:32;12.20;;;2.80;;
37483;SDS011;23337;52.212;9.926;2023-02-01T00:30:59;15.37;;;3.20;;
37483;SDS011;23337;52.212;9.926;2023-02-01T00:33:26;17.37;;;4.33;;
37483;SDS011;23337;52.212;9.926;2023-02-01T00:35:56;18.27;;;3.33;;
37483;SDS011;23337;52.212;9.926;2023-02-01T00:38:22;19.33;;;2.90;;
37483;SDS011;23337;52.212;9.926;2023-02-01T00:40:48;13.30;;;2.93;;
37483;SDS011;23337;52.212;9.926;2023-02-01T00:43:14;8.20;;;3.07;;
37483;SDS011;23337;52.212;9.926;2023-02-01T00:45:40;15.10;;;4.23;;
37483;SDS011;23337;52.212;9.926;2023-02-01T00:48:06;14.70;;;3.40;;
37483;SDS011;23337;52.212;9.926;2023-02-01T00:50:32;12.03;;;3.13;;
37483;SDS011;23337;52.212;9.926;2023-02-01T00:52:58;17.20;;;3.30;;
37483;SDS011;23337;52.212;9.926;2023-02-01T00:55:24;15.23;;;3.37;;
37483;SDS011;23337;52.212;9.926;2023-02-01T00:57:50;14.93;;;2.60;;
37483;SDS011;23337;52.212;9.926;2023-02-01T01:00:16;17.40;;;2.70;;
37483;SDS011;23337;52.212;9.926;2023-02-01T01:02:42;16.03;;;3.37;;
37483;SDS011;23337;52.212;9.926;2023-02-01T01:05:08;14.93;;;3.20;;
37483;SDS011;23337;52.212;9.926;2023-02-01T01:07:34;13.93;;;3.23;;
37483;SDS011;23337;52.212;9.926;2023-02-01T01:10:00;14.00;;;2.97;;
37483;SDS011;23337;52.212;9.926;2023-02-01T01:12:26;17.60;;;3.07;;
37483;SDS011;23337;52.212;9.926;2023-02-01T01:14:52;16.70;;;4.17;;
37483;SDS011;23337;52.212;9.926;2023-02-01T01:17:18;9.43;;;2.70;;
37483;SDS011;23337;52.212;9.926;2023-02-01T01:19:44;9.93;;;2.53;;
37483;SDS011;23337;52.212;9.926;2023-02-01T01:22:10;14.53;;;3.20;;
37483;SDS011;23337;52.212;9.926;2023-02-01T01:24:36;18.13;;;3.03;;
37483;SDS011;23337;52.212;9.926;2023-02-01T01:27:02;12.90;;;3.00;;
37483;SDS011;23337;52.212;9.926;2023-02-01T01:29:28;16.37;;;3.13;;
37483;SDS011;23337;52.212;9.926;2023-02-01T01:31:53;13.43;;;3.13;;
37483;SDS011;23337;52.212;9.926;2023-02-01T01:34:19;13.07;;;3.07;;
37483;SDS011;23337;52.212;9.926;2023-02-01T01:36:45;12.20;;;2.67;;
37483;SDS011;23337;52.212;9.926;2023-02-01T01:39:11;12.47;;;2.67;;
37483;SDS011;23337;52.212;9.926;2023-02-01T01:41:37;11.17;;;3.57;;
37483;SDS011;23337;52.212;9.926;2023-02-01T01:44:53;13.73;;;3.20;;
37483;SDS011;23337;52.212;9.926;2023-02-01T01:46:49;17.60;;;3.73;;
37483;SDS011;23337;52.212;9.926;2023-02-01T01:49:17;12.90;;;3.97;;
37483;SDS011;23337;52.212;9.926;2023-02-01T01:51:55;10.30;;;4.23;;
37483;SDS011;23337;52.212;9.926;2023-02-01T01:54:24;13.60;;;2.70;;
37483;SDS011;23337;52.212;9.926;2023-02-01T01:56:53;14.70;;;3.90;;
37483;SDS011;23337;52.212;9.926;2023-02-01T01:59:21;15.73;;;3.20;;
37483;SDS011;23337;52.212;9.926;2023-02-01T02:01:47;18.03;;;3.77;;
37483;SDS011;23337;52.212;9.926;2023-02-01T02:04:13;15.83;;;3.93;;
37483;SDS011;23337;52.212;9.926;2023-02-01T02:06:44;13.77;;;3.57;;
37483;SDS011;23337;52.212;9.926;2023-02-01T02:09:12;13.50;;;4.13;;
37483;SDS011;23337;52.212;9.926;2023-02-01T02:11:38;13.77;;;3.33;;
37483;SDS011;23337;52.212;9.926;2023-02-01T02:14:05;16.27;;;3.10;;
37483;SDS011;23337;52.212;9.926;2023-02-01T02:27:17;12.90;;;2.87;;
37483;SDS011;23337;52.212;9.926;2023-02-01T02:29:54;10.87;;;4.00;;
37483;SDS011;23337;52.212;9.926;2023-02-01T02:32:32;13.13;;;3.13;;
37483;SDS011;23337;52.212;9.926;2023-02-01T02:35:14;16.33;;;2.90;;
37483;SDS011;23337;52.212;9.926;2023-02-01T02:37:46;11.60;;;3.07;;
37483;SDS011;23337;52.212;9.926;2023-02-01T02:46:01;15.83;;;2.63;;
37483;SDS011;23337;52.212;9.926;2023-02-01T02:49:08;20.83;;;3.73;;
37483;SDS011;23337;52.212;9.926;2023-02-01T02:54:23;16.50;;;3.60;;
37483;SDS011;23337;52.212;9.926;2023-02-01T02:57:09;17.40;;;3.47;;
37483;SDS011;23337;52.212;9.926;2023-02-01T02:59:55;14.47;;;3.30;;
37483;SDS011;23337;52.212;9.926;2023-02-01T03:02:41;9.10;;;3.03;;
37483;SDS011;23337;52.212;9.926;2023-02-01T03:05:31;18.17;;;4.67;;
37483;SDS011;23337;52.212;9.926;2023-02-01T03:08:12;13.47;;;3.63;;
37483;SDS011;23337;52.212;9.926;2023-02-01T03:10:43;10.80;;;2.67;;
37483;SDS011;23337;52.212;9.926;2023-02-01T03:13:22;19.10;;;3.47;;
37483;SDS011;23337;52.212;9.926;2023-02-01T03:21:06;17.93;;;3.67;;
37483;SDS011;23337;52.212;9.926;2023-02-01T03:23:33;20.17;;;4.13;;
37483;SDS011;23337;52.212;9.926;2023-02-01T03:26:02;13.30;;;2.50;;
37483;SDS011;23337;52.212;9.926;2023-02-01T03:28:29;20.87;;;4.03;;
37483;SDS011;23337;52.212;9.926;2023-02-01T03:30:56;14.53;;;3.47;;
37483;SDS011;23337;52.212;9.926;2023-02-01T03:33:23;21.57;;;4.30;;
37483;SDS011;23337;52.212;9.926;2023-02-01T03:38:37;13.37;;;2.90;;
37483;SDS011;23337;52.212;9.926;2023-02-01T03:41:15;24.50;;;3.80;;
37483;SDS011;23337;52.212;9.926;2023-02-01T03:43:49;18.83;;;3.90;;
37483;SDS011;23337;52.212;9.926;2023-02-01T03:46:17;9.53;;;3.07;;
37483;SDS011;23337;52.212;9.926;2023-02-01T03:48:46;12.37;;;3.60;;
37483;SDS011;23337;52.212;9.926;2023-02-01T03:51:13;15.07;;;3.53;;
37483;SDS011;23337;52.212;9.926;2023-02-01T03:53:39;11.97;;;3.23;;
37483;SDS011;23337;52.212;9.926;2023-02-01T03:56:05;17.40;;;4.47;;
37483;SDS011;23337;52.212;9.926;2023-02-01T03:58:32;13.47;;;4.73;;
37483;SDS011;23337;52.212;9.926;2023-02-01T04:00:58;12.53;;;3.93;;
37483;SDS011;23337;52.212;9.926;2023-02-01T04:03:25;13.83;;;3.63;;
37483;SDS011;23337;52.212;9.926;2023-02-01T04:05:51;18.00;;;3.87;;
37483;SDS011;23337;52.212;9.926;2023-02-01T04:08:18;20.27;;;4.03;;
37483;SDS011;23337;52.212;9.926;2023-02-01T04:10:44;15.87;;;3.93;;
37483;SDS011;23337;52.212;9.926;2023-02-01T04:13:10;11.57;;;3.60;;
37483;SDS011;23337;52.212;9.926;2023-02-01T04:15:37;19.20;;;3.87;;
37483;SDS011;23337;52.212;9.926;2023-02-01T04:18:03;18.50;;;3.87;;
37483;SDS011;23337;52.212;9.926;2023-02-01T04:20:29;12.57;;;3.57;;
37483;SDS011;23337;52.212;9.926;2023-02-01T04:22:55;14.50;;;3.50;;
37483;SDS011;23337;52.212;9.926;2023-02-01T04:25:21;17.17;;;4.77;;
37483;SDS011;23337;52.212;9.926;2023-02-01T04:27:47;9.53;;;3.27;;
37483;SDS011;23337;52.212;9.926;2023-02-01T04:30:13;14.60;;;4.30;;
37483;SDS011;23337;52.212;9.926;2023-02-01T04:32:39;12.37;;;3.90;;
37483;SDS011;23337;52.212;9.926;2023-02-01T04:35:05;15.80;;;3.70;;
37483;SDS011;23337;52.212;9.926;2023-02-01T04:37:31;17.63;;;4.13;;
37483;SDS011;23337;52.212;9.926;2023-02-01T04:39:57;16.60;;;4.13;;
37483;SDS011;23337;52.212;9.926;2023-02-01T04:42:23;18.87;;;5.43;;
37483;SDS011;23337;52.212;9.926;2023-02-01T04:44:49;17.53;;;3.80;;
37483;SDS011;23337;52.212;9.926;2023-02-01T04:47:15;17.27;;;4.13;;
37483;SDS011;23337;52.212;9.926;2023-02-01T04:49:41;13.87;;;3.77;;
37483;SDS011;23337;52.212;9.926;2023-02-01T04:52:07;15.33;;;4.17;;
37483;SDS011;23337;52.212;9.926;2023-02-01T04:54:33;17.20;;;3.27;;
37483;SDS011;23337;52.212;9.926;2023-02-01T04:56:59;17.17;;;4.40;;
37483;SDS011;23337;52.212;9.926;2023-02-01T04:59:26;14.23;;;3.93;;
37483;SDS011;23337;52.212;9.926;2023-02-01T05:01:52;12.13;;;3.77;;
37483;SDS011;23337;52.212;9.926;2023-02-01T05:04:18;9.40;;;4.10;;
37483;SDS011;23337;52.212;9.926;2023-02-01T05:06:44;10.97;;;3.40;;
37483;SDS011;23337;52.212;9.926;2023-02-01T05:09:10;13.43;;;3.57;;
37483;SDS011;23337;52.212;9.926;2023-02-01T05:11:37;12.93;;;5.37;;
37483;SDS011;23337;52.212;9.926;2023-02-01T05:14:21;12.73;;;3.27;;
37483;SDS011;23337;52.212;9.926;2023-02-01T05:16:47;12.57;;;3.63;;
37483;SDS011;23337;52.212;9.926;2023-02-01T05:19:13;15.13;;;4.77;;
37483;SDS011;23337;52.212;9.926;2023-02-01T05:21:39;15.23;;;3.70;;
37483;SDS011;23337;52.212;9.926;2023-02-01T05:24:07;15.47;;;4.30;;
37483;SDS011;23337;52.212;9.926;2023-02-01T05:26:42;12.43;;;4.10;;
37483;SDS011;23337;52.212;9.926;2023-02-01T05:29:08;15.77;;;3.50;;
37483;SDS011;23337;52.212;9.926;2023-02-01T05:31:34;18.17;;;4.63;;
37483;SDS011;23337;52.212;9.926;2023-02-01T05:34:01;14.20;;;3.00;;
37483;SDS011;23337;52.212;9.926;2023-02-01T05:36:27;12.17;;;3.43;;
37483;SDS011;23337;52.212;9.926;2023-02-01T05:38:53;11.40;;;3.33;;
37483;SDS011;23337;52.212;9.926;2023-02-01T05:41:19;9.17;;;3.00;;
37483;SDS011;23337;52.212;9.926;2023-02-01T05:43:45;14.20;;;4.07;;
37483;SDS011;23337;52.212;9.926;2023-02-01T05:46:10;12.10;;;4.20;;
37483;SDS011;23337;52.212;9.926;2023-02-01T05:48:38;12.07;;;3.60;;
37483;SDS011;23337;52.212;9.926;2023-02-01T05:51:04;11.30;;;2.97;;
37483;SDS011;23337;52.212;9.926;2023-02-01T05:53:30;10.97;;;3.63;;
37483;SDS011;23337;52.212;9.926;2023-02-01T05:55:56;13.13;;;3.40;;
37483;SDS011;23337;52.212;9.926;2023-02-01T05:58:22;14.93;;;3.47;;
37483;SDS011;23337;52.212;9.926;2023-02-01T06:00:48;13.17;;;3.03;;
37483;SDS011;23337;52.212;9.926;2023-02-01T06:03:14;10.73;;;3.70;;
37483;SDS011;23337;52.212;9.926;2023-02-01T06:05:40;11.97;;;3.17;;
37483;SDS011;23337;52.212;9.926;2023-02-01T06:08:06;16.23;;;3.87;;
37483;SDS011;23337;52.212;9.926;2023-02-01T06:10:32;10.40;;;3.37;;
37483;SDS011;23337;52.212;9.926;2023-02-01T06:12:58;14.07;;;3.20;;
37483;SDS011;23337;52.212;9.926;2023-02-01T06:15:24;11.93;;;2.97;;
37483;SDS011;23337;52.212;9.926;2023-02-01T06:17:50;13.97;;;3.73;;
37483;SDS011;23337;52.212;9.926;2023-02-01T06:20:16;11.80;;;3.73;;
37483;SDS011;23337;52.212;9.926;2023-02-01T06:22:42;10.93;;;3.07;;
37483;SDS011;23337;52.212;9.926;2023-02-01T06:25:08;7.63;;;2.57;;
37483;SDS011;23337;52.212;9.926;2023-02-01T06:27:35;12.70;;;3.80;;
37483;SDS011;23337;52.212;9.926;2023-02-01T06:30:02;9.87;;;3.23;;
37483;SDS011;23337;52.212;9.926;2023-02-01T06:32:28;10.63;;;2.60;;
37483;SDS011;23337;52.212;9.926;2023-02-01T06:34:54;9.23;;;2.63;;
37483;SDS011;23337;52.212;9.926;2023-02-01T06:37:20;8.33;;;2.37;;
37483;SDS011;23337;52.212;9.926;2023-02-01T06:39:47;12.37;;;2.50;;
37483;SDS011;23337;52.212;9.926;2023-02-01T06:42:13;9.30;;;2.30;;
37483;SDS011;23337;52.212;9.926;2023-02-01T06:44:39;9.27;;;2.60;;
37483;SDS011;23337;52.212;9.926;2023-02-01T06:47:05;12.43;;;2.80;;
37483;SDS011;23337;52.212;9.926;2023-02-01T06:49:31;9.97;;;2.37;;
37483;SDS011;23337;52.212;9.926;2023-02-01T06:51:57;6.70;;;2.00;;
37483;SDS011;23337;52.212;9.926;2023-02-01T06:54:25;7.07;;;1.47;;
37483;SDS011;23337;52.212;9.926;2023-02-01T06:56:51;8.40;;;2.43;;
37483;SDS011;23337;52.212;9.926;2023-02-01T06:59:17;6.27;;;2.57;;
37483;SDS011;23337;52.212;9.926;2023-02-01T07:01:43;6.10;;;2.40;;
37483;SDS011;23337;52.212;9.926;2023-02-01T07:04:12;10.93;;;2.53;;
37483;SDS011;23337;52.212;9.926;2023-02-01T07:06:38;10.63;;;2.80;;
37483;SDS011;23337;52.212;9.926;2023-02-01T07:09:04;11.57;;;4.30;;
37483;SDS011;23337;52.212;9.926;2023-02-01T07:11:30;8.27;;;2.87;;
37483;SDS011;23337;52.212;9.926;2023-02-01T07:13:56;8.23;;;2.80;;
37483;SDS011;23337;52.212;9.926;2023-02-01T07:16:22;11.63;;;3.37;;
37483;SDS011;23337;52.212;9.926;2023-02-01T07:18:49;9.27;;;3.00;;
37483;SDS011;23337;52.212;9.926;2023-02-01T07:21:15;8.37;;;2.77;;
37483;SDS011;23337;52.212;9.926;2023-02-01T07:23:41;11.67;;;3.00;;
37483;SDS011;23337;52.212;9.926;2023-02-01T07:26:09;17.33;;;4.57;;
37483;SDS011;23337;52.212;9.926;2023-02-01T07:28:37;10.20;;;3.30;;
37483;SDS011;23337;52.212;9.926;2023-02-01T07:31:07;7.67;;;3.13;;
37483;SDS011;23337;52.212;9.926;2023-02-01T07:33:33;9.20;;;2.17;;
37483;SDS011;23337;52.212;9.926;2023-02-01T07:36:00;10.13;;;2.83;;
37483;SDS011;23337;52.212;9.926;2023-02-01T07:38:26;7.43;;;2.50;;
37483;SDS011;23337;52.212;9.926;2023-02-01T07:40:56;8.43;;;2.73;;
37483;SDS011;23337;52.212;9.926;2023-02-01T07:43:23;7.60;;;2.30;;
37483;SDS011;23337;52.212;9.926;2023-02-01T07:45:52;9.27;;;2.33;;
37483;SDS011;23337;52.212;9.926;2023-02-01T07:48:19;11.27;;;2.23;;
37483;SDS011;23337;52.212;9.926;2023-02-01T07:50:45;11.80;;;2.97;;
37483;SDS011;23337;52.212;9.926;2023-02-01T07:53:11;14.60;;;2.70;;
37483;SDS011;23337;52.212;9.926;2023-02-01T07:55:37;13.03;;;2.53;;
37483;SDS011;23337;52.212;9.926;2023-02-01T07:58:03;10.60;;;2.07;;
37483;SDS011;23337;52.212;9.926;2023-02-01T08:00:29;10.77;;;2.10;;
37483;SDS011;23337;52.212;9.926;2023-02-01T08:03:14;9.30;;;2.60;;
37483;SDS011;23337;52.212;9.926;2023-02-01T08:05:40;13.20;;;4.60;;
37483;SDS011;23337;52.212;9.926;2023-02-01T08:08:06;17.90;;;3.83;;
37483;SDS011;23337;52.212;9.926;2023-02-01T08:10:32;10.93;;;2.63;;
37483;SDS011;23337;52.212;9.926;2023-02-01T08:12:59;11.07;;;2.30;;
37483;SDS011;23337;52.212;9.926;2023-02-01T08:15:26;10.53;;;2.40;;
37483;SDS011;23337;52.212;9.926;2023-02-01T08:17:52;9.53;;;2.27;;
37483;SDS011;23337;52.212;9.926;2023-02-01T08:20:19;14.37;;;3.33;;
37483;SDS011;23337;52.212;9.926;2023-02-01T08:22:47;8.53;;;2.67;;
37483;SDS011;23337;52.212;9.926;2023-02-01T08:25:13;11.20;;;3.30;;
37483;SDS011;23337;52.212;9.926;2023-02-01T08:27:39;12.63;;;3.07;;
37483;SDS011;23337;52.212;9.926;2023-02-01T08:30:05;10.27;;;2.23;;
37483;SDS011;23337;52.212;9.926;2023-02-01T08:32:34;11.97;;;3.07;;
37483;SDS011;23337;52.212;9.926;2023-02-01T08:35:01;10.97;;;3.13;;
37483;SDS011;23337;52.212;9.926;2023-02-01T08:37:27;13.33;;;2.93;;
37483;SDS011;23337;52.212;9.926;2023-02-01T08:39:53;13.43;;;2.87;;
37483;SDS011;23337;52.212;9.926;2023-02-01T08:42:19;11.13;;;3.60;;
37483;SDS011;23337;52.212;9.926;2023-02-01T08:45:04;10.63;;;3.20;;
37483;SDS011;23337;52.212;9.926;2023-02-01T08:47:30;11.20;;;2.33;;
37483;SDS011;23337;52.212;9.926;2023-02-01T08:49:56;10.37;;;2.73;;
37483;SDS011;23337;52.212;9.926;2023-02-01T08:52:22;11.47;;;2.50;;
37483;SDS011;23337;52.212;9.926;2023-02-01T08:54:48;9.67;;;2.10;;
37483;SDS011;23337;52.212;9.926;2023-02-01T08:57:14;8.80;;;2.07;;
37483;SDS011;23337;52.212;9.926;2023-02-01T08:59:40;10.50;;;1.80;;
37483;SDS011;23337;52.212;9.926;2023-02-01T09:02:08;9.33;;;2.90;;
37483;SDS011;23337;52.212;9.926;2023-02-01T09:04:34;11.87;;;2.57;;
37483;SDS011;23337;52.212;9.926;2023-02-01T09:07:00;16.03;;;2.23;;
37483;SDS011;23337;52.212;9.926;2023-02-01T09:09:27;16.70;;;2.87;;
37483;SDS011;23337;52.212;9.926;2023-02-01T09:11:53;7.93;;;2.43;;
37483;SDS011;23337;52.212;9.926;2023-02-01T09:14:19;13.57;;;3.43;;
37483;SDS011;23337;52.212;9.926;2023-02-01T09:16:45;11.33;;;2.10;;
37483;SDS011;23337;52.212;9.926;2023-02-01T09:19:12;14.07;;;2.97;;
37483;SDS011;23337;52.212;9.926;2023-02-01T09:21:38;13.70;;;3.07;;
37483;SDS011;23337;52.212;9.926;2023-02-01T09:24:04;11.97;;;3.07;;
37483;SDS011;23337;52.212;9.926;2023-02-01T09:26:30;10.43;;;2.23;;
37483;SDS011;23337;52.212;9.926;2023-02-01T09:28:56;12.40;;;2.87;;
37483;SDS011;23337;52.212;9.926;2023-02-01T09:31:22;9.57;;;2.20;;
37483;SDS011;23337;52.212;9.926;2023-02-01T09:33:48;9.47;;;2.60;;
37483;SDS011;23337;52.212;9.926;2023-02-01T09:36:13;11.50;;;2.57;;
37483;SDS011;23337;52.212;9.926;2023-02-01T09:38:39;8.97;;;2.30;;
37483;SDS011;23337;52.212;9.926;2023-02-01T09:43:55;11.13;;;2.97;;
37483;SDS011;23337;52.212;9.926;2023-02-01T09:46:29;13.13;;;3.30;;
37483;SDS011;23337;52.212;9.926;2023-02-01T09:48:57;10.33;;;2.33;;
37483;SDS011;23337;52.212;9.926;2023-02-01T09:51:30;10.10;;;1.80;;
37483;SDS011;23337;52.212;9.926;2023-02-01T09:53:59;12.07;;;2.90;;
37483;SDS011;23337;52.212;9.926;2023-02-01T09:56:29;11.20;;;2.57;;
37483;SDS011;23337;52.212;9.926;2023-02-01T09:59:10;6.77;;;1.93;;
37483;SDS011;23337;52.212;9.926;2023-02-01T10:01:44;8.93;;;2.33;;
37483;SDS011;23337;52.212;9.926;2023-02-01T10:04:11;10.33;;;2.47;;
37483;SDS011;23337;52.212;9.926;2023-02-01T10:06:44;12.50;;;4.00;;
37483;SDS011;23337;52.212;9.926;2023-02-01T10:14:37;14.33;;;3.93;;
37483;SDS011;23337;52.212;9.926;2023-02-01T10:24:49;12.20;;;2.97;;
37483;SDS011;23337;52.212;9.926;2023-02-01T10:27:33;8.43;;;3.33;;
37483;SDS011;23337;52.212;9.926;2023-02-01T10:30:01;8.10;;;2.17;;
37483;SDS011;23337;52.212;9.926;2023-02-01T10:32:30;13.60;;;2.60;;
37483;SDS011;23337;52.212;9.926;2023-02-01T10:34:58;7.80;;;3.13;;
37483;SDS011;23337;52.212;9.926;2023-02-01T10:37:26;10.13;;;3.30;;
37483;SDS011;23337;52.212;9.926;2023-02-01T10:39:53;14.10;;;2.60;;
37483;SDS011;23337;52.212;9.926;2023-02-01T10:42:21;6.47;;;2.07;;
37483;SDS011;23337;52.212;9.926;2023-02-01T10:44:49;5.67;;;2.20;;
37483;SDS011;23337;52.212;9.926;2023-02-01T10:47:15;9.50;;;2.30;;
37483;SDS011;23337;52.212;9.926;2023-02-01T10:52:42;10.10;;;2.17;;
37483;SDS011;23337;52.212;9.926;2023-02-01T10:57:57;10.17;;;2.20;;
37483;SDS011;23337;52.212;9.926;2023-02-01T11:00:23;12.57;;;2.50;;
37483;SDS011;23337;52.212;9.926;2023-02-01T11:02:50;11.03;;;2.87;;
37483;SDS011;23337;52.212;9.926;2023-02-01T11:05:16;6.97;;;1.47;;
37483;SDS011;23337;52.212;9.926;2023-02-01T11:07:48;11.97;;;2.40;;
37483;SDS011;23337;52.212;9.926;2023-02-01T11:12:59;10.43;;;3.10;;
37483;SDS011;23337;52.212;9.926;2023-02-01T11:15:27;10.33;;;2.23;;
37483;SDS011;23337;52.212;9.926;2023-02-01T11:17:53;11.37;;;2.20;;
37483;SDS011;23337;52.212;9.926;2023-02-01T11:20:33;13.63;;;2.77;;
37483;SDS011;23337;52.212;9.926;2023-02-01T11:23:00;11.17;;;2.07;;
37483;SDS011;23337;52.212;9.926;2023-02-01T11:25:27;11.10;;;2.73;;
37483;SDS011;23337;52.212;9.926;2023-02-01T11:27:53;7.17;;;1.80;;
37483;SDS011;23337;52.212;9.926;2023-02-01T11:30:36;12.57;;;1.90;;
37483;SDS011;23337;52.212;9.926;2023-02-01T11:33:05;11.90;;;3.03;;
37483;SDS011;23337;52.212;9.926;2023-02-01T11:35:31;15.00;;;3.37;;
37483;SDS011;23337;52.212;9.926;2023-02-01T11:37:58;9.27;;;3.20;;
37483;SDS011;23337;52.212;9.926;2023-02-01T11:40:26;8.67;;;1.80;;
37483;SDS011;23337;52.212;9.926;2023-02-01T11:43:17;12.13;;;2.60;;
37483;SDS011;23337;52.212;9.926;2023-02-01T11:45:39;12.13;;;3.47;;
37483;SDS011;23337;52.212;9.926;2023-02-01T11:48:15;11.40;;;2.87;;
37483;SDS011;23337;52.212;9.926;2023-02-01T11:50:54;12.03;;;4.13;;
37483;SDS011;23337;52.212;9.926;2023-02-01T11:55:56;21.40;;;4.77;;
37483;SDS011;23337;52.212;9.926;2023-02-01T11:58:33;17.67;;;4.17;;
37483;SDS011;23337;52.212;9.926;2023-02-01T12:01:10;10.90;;;2.40;;
37483;SDS011;23337;52.212;9.926;2023-02-01T12:03:43;11.70;;;2.77;;
37483;SDS011;23337;52.212;9.926;2023-02-01T12:06:32;12.80;;;2.97;;
37483;SDS011;23337;52.212;9.926;2023-02-01T12:09:06;11.43;;;3.43;;
37483;SDS011;23337;52.212;9.926;2023-02-01T12:11:39;12.90;;;2.90;;
37483;SDS011;23337;52.212;9.926;2023-02-01T12:21:55;14.80;;;2.50;;
37483;SDS011;23337;52.212;9.926;2023-02-01T12:37:24;13.20;;;2.63;;
37483;SDS011;23337;52.212;9.926;2023-02-01T12:39:58;8.63;;;2.70;;
37483;SDS011;23337;52.212;9.926;2023-02-01T12:42:31;9.60;;;3.40;;
37483;SDS011;23337;52.212;9.926;2023-02-01T12:47:26;15.93;;;3.20;;
37483;SDS011;23337;52.212;9.926;2023-02-01T12:49:59;10.20;;;2.50;;
37483;SDS011;23337;52.212;9.926;2023-02-01T12:52:28;6.27;;;2.23;;
37483;SDS011;23337;52.212;9.926;2023-02-01T12:57:32;10.97;;;2.63;;
37483;SDS011;23337;52.212;9.926;2023-02-01T13:00:02;6.23;;;2.17;;
37483;SDS011;23337;52.212;9.926;2023-02-01T13:02:44;7.57;;;2.70;;
37483;SDS011;23337;52.212;9.926;2023-02-01T13:05:21;9.70;;;2.73;;
37483;SDS011;23337;52.212;9.926;2023-02-01T13:07:53;12.10;;;2.30;;
37483;SDS011;23337;52.212;9.926;2023-02-01T13:10:53;5.63;;;2.07;;
37483;SDS011;23337;52.212;9.926;2023-02-01T13:13:19;7.03;;;1.93;;
37483;SDS011;23337;52.212;9.926;2023-02-01T13:18:13;13.97;;;3.43;;
37483;SDS011;23337;52.212;9.926;2023-02-01T13:20:46;9.30;;;3.00;;
37483;SDS011;23337;52.212;9.926;2023-02-01T13:23:24;5.37;;;2.07;;
37483;SDS011;23337;52.212;9.926;2023-02-01T13:25:51;10.07;;;2.43;;
37483;SDS011;23337;52.212;9.926;2023-02-01T13:33:41;5.50;;;1.90;;
37483;SDS011;23337;52.212;9.926;2023-02-01T13:36:14;7.53;;;1.97;;
37483;SDS011;23337;52.212;9.926;2023-02-01T13:39:19;5.33;;;2.27;;
37483;SDS011;23337;52.212;9.926;2023-02-01T13:44:12;6.47;;;3.07;;
37483;SDS011;23337;52.212;9.926;2023-02-01T13:46:44;6.40;;;3.73;;
37483;SDS011;23337;52.212;9.926;2023-02-01T13:49:18;9.50;;;3.47;;
37483;SDS011;23337;52.212;9.926;2023-02-01T13:51:45;6.70;;;1.87;;
37483;SDS011;23337;52.212;9.926;2023-02-01T13:54:24;5.27;;;1.77;;
37483;SDS011;23337;52.212;9.926;2023-02-01T13:56:51;3.03;;;1.23;;
37483;SDS011;23337;52.212;9.926;2023-02-01T13:59:44;1.30;;;0.30;;
37483;SDS011;23337;52.212;9.926;2023-02-01T14:04:59;2.73;;;0.63;;
37483;SDS011;23337;52.212;9.926;2023-02-01T14:07:25;1.10;;;0.30;;
37483;SDS011;23337;52.212;9.926;2023-02-01T14:09:51;0.87;;;0.30;;
37483;SDS011;23337;52.212;9.926;2023-02-01T14:12:41;0.60;;;0.27;;
37483;SDS011;23337;52.212;9.926;2023-02-01T14:15:17;0.90;;;0.60;;
37483;SDS011;23337;52.212;9.926;2023-02-01T14:17:43;2.77;;;0.80;;
37483;SDS011;23337;52.212;9.926;2023-02-01T14:23:14;0.90;;;0.40;;
37483;SDS011;23337;52.212;9.926;2023-02-01T14:25:41;5.90;;;2.80;;
37483;SDS011;23337;52.212;9.926;2023-02-01T14:28:11;0.60;;;0.60;;
37483;SDS011;23337;52.212;9.926;2023-02-01T14:30:47;0.30;;;0.30;;
37483;SDS011;23337;52.212;9.926;2023-02-01T14:33:20;1.47;;;0.60;;
37483;SDS011;23337;52.212;9.926;2023-02-01T14:36:04;0.43;;;0.40;;
37483;SDS011;23337;52.212;9.926;2023-02-01T14:38:31;0.67;;;0.27;;
37483;SDS011;23337;52.212;9.926;2023-02-01T14:43:49;1.23;;;0.70;;
37483;SDS011;23337;52.212;9.926;2023-02-01T14:46:15;0.50;;;0.50;;
37483;SDS011;23337;52.212;9.926;2023-02-01T14:48:42;1.10;;;0.50;;
37483;SDS011;23337;52.212;9.926;2023-02-01T14:51:10;2.30;;;0.90;;
37483;SDS011;23337;52.212;9.926;2023-02-01T14:53:38;2.77;;;0.87;;
37483;SDS011;23337;52.212;9.926;2023-02-01T14:56:08;2.00;;;1.10;;
37483;SDS011;23337;52.212;9.926;2023-02-01T15:01:35;1.67;;;0.80;;
37483;SDS011;23337;52.212;9.926;2023-02-01T15:04:08;2.13;;;0.80;;
37483;SDS011;23337;52.212;9.926;2023-02-01T15:09:08;4.80;;;0.97;;
37483;SDS011;23337;52.212;9.926;2023-02-01T15:14:19;1.77;;;0.50;;
37483;SDS011;23337;52.212;9.926;2023-02-01T15:16:45;2.23;;;1.13;;
37483;SDS011;23337;52.212;9.926;2023-02-01T15:19:18;3.87;;;0.60;;
37483;SDS011;23337;52.212;9.926;2023-02-01T15:21:46;1.90;;;0.60;;
37483;SDS011;23337;52.212;9.926;2023-02-01T15:24:13;4.80;;;1.30;;
37483;SDS011;23337;52.212;9.926;2023-02-01T15:26:39;0.60;;;0.37;;
37483;SDS011;23337;52.212;9.926;2023-02-01T15:29:08;2.83;;;0.87;;
37483;SDS011;23337;52.212;9.926;2023-02-01T15:31:36;4.83;;;1.27;;
37483;SDS011;23337;52.212;9.926;2023-02-01T15:34:02;4.90;;;2.17;;
37483;SDS011;23337;52.212;9.926;2023-02-01T15:36:28;3.10;;;1.00;;
37483;SDS011;23337;52.212;9.926;2023-02-01T15:39:13;4.20;;;1.00;;
37483;SDS011;23337;52.212;9.926;2023-02-01T15:41:48;1.60;;;0.50;;
37483;SDS011;23337;52.212;9.926;2023-02-01T15:44:47;6.40;;;1.07;;
37483;SDS011;23337;52.212;9.926;2023-02-01T15:47:14;4.40;;;1.57;;
37483;SDS011;23337;52.212;9.926;2023-02-01T15:49:41;4.57;;;2.00;;
37483;SDS011;23337;52.212;9.926;2023-02-01T15:52:16;5.40;;;2.03;;
37483;SDS011;23337;52.212;9.926;2023-02-01T15:54:47;4.10;;;1.53;;
37483;SDS011;23337;52.212;9.926;2023-02-01T15:57:18;3.53;;;1.27;;
37483;SDS011;23337;52.212;9.926;2023-02-01T15:59:45;7.50;;;3.63;;
37483;SDS011;23337;52.212;9.926;2023-02-01T16:04:57;8.30;;;2.13;;
37483;SDS011;23337;52.212;9.926;2023-02-01T16:07:25;5.10;;;1.30;;
37483;SDS011;23337;52.212;9.926;2023-02-01T16:09:56;4.60;;;1.33;;
37483;SDS011;23337;52.212;9.926;2023-02-01T16:12:32;5.20;;;0.90;;
37483;SDS011;23337;52.212;9.926;2023-02-01T16:15:00;2.63;;;1.83;;
37483;SDS011;23337;52.212;9.926;2023-02-01T16:17:26;6.67;;;1.30;;
37483;SDS011;23337;52.212;9.926;2023-02-01T16:19:52;2.67;;;1.10;;
37483;SDS011;23337;52.212;9.926;2023-02-01T16:22:19;7.17;;;1.40;;
37483;SDS011;23337;52.212;9.926;2023-02-01T16:24:45;6.23;;;1.20;;
37483;SDS011;23337;52.212;9.926;2023-02-01T16:27:11;2.40;;;1.23;;
37483;SDS011;23337;52.212;9.926;2023-02-01T16:29:37;3.63;;;1.60;;
37483;SDS011;23337;52.212;9.926;2023-02-01T16:32:03;4.63;;;1.10;;
37483;SDS011;23337;52.212;9.926;2023-02-01T16:34:29;6.00;;;1.67;;
37483;SDS011;23337;52.212;9.926;2023-02-01T16:36:55;7.53;;;1.50;;
37483;SDS011;23337;52.212;9.926;2023-02-01T16:39:22;4.50;;;1.63;;